Time;durP1;ratioP1;P1;durP2;ratioP2;P2;SDS_P1;SDS_P2;PMS_P1;PMS_P2;Temp;Humidity;BMP_temperature;BMP_pressure;BME280_temperature;BME280_humidity;BME280_pressure;Samples;Min_cycle;Max_cycle;Signal;HPM_P1;HPM_P2
2023/10/22 00:00:07;;;;;;;15.13;6.38;;;24.10;65.20;;;;;;6201213;28;80585;-70
2023/10/22 00:03:11;;;;;;;8.15;5.20;;;24.10;65.10;;;;;;6213994;28;80631;-75
2023/10/22 00:06:12;;;;;;;11.90;6.10;;;24.10;65.10;;;;;;6226204;27;81120;-78
2023/10/22 00:09:12;;;;;;;10.48;6.55;;;24.20;65.00;;;;;;6234725;27;81701;-76
2023/10/22 00:12:13;;;;;;;9.93;6.13;;;24.20;65.10;;;;;;6229618;28;81491;-78
2023/10/22 00:15:14;;;;;;;14.57;6.03;;;24.20;65.20;;;;;;6227556;27;80420;-75
2023/10/22 00:18:14;;;;;;;19.27;6.70;;;24.20;65.10;;;;;;6224776;28;80342;-74
2023/10/22 00:21:15;;;;;;;10.00;5.90;;;24.20;65.00;;;;;;6205490;28;80293;-72
2023/10/22 00:24:16;;;;;;;14.77;6.63;;;24.20;65.00;;;;;;6215658;28;82229;-72
2023/10/22 00:27:16;;;;;;;11.50;5.57;;;24.20;65.00;;;;;;6217146;28;80455;-73
2023/10/22 00:30:17;;;;;;;10.70;6.15;;;24.20;65.00;;;;;;6217761;27;82024;-74
2023/10/22 00:33:17;;;;;;;11.80;6.43;;;24.30;65.00;;;;;;6227635;28;83518;-60
2023/10/22 00:36:18;;;;;;;12.27;6.57;;;24.30;65.00;;;;;;6228629;27;81289;-61
2023/10/22 00:39:18;;;;;;;9.95;5.80;;;24.30;65.00;;;;;;6229208;28;83946;-61
2023/10/22 00:42:20;;;;;;;12.85;6.60;;;24.20;64.90;;;;;;6238368;27;80541;-62
2023/10/22 00:45:21;;;;;;;12.05;6.35;;;24.20;65.00;;;;;;6227093;28;83188;-60
2023/10/22 00:48:22;;;;;;;15.48;6.75;;;24.20;65.00;;;;;;6225046;28;82317;-62
2023/10/22 00:51:23;;;;;;;10.57;6.15;;;24.20;64.90;;;;;;6229555;28;80674;-72
2023/10/22 00:54:23;;;;;;;9.23;6.45;;;24.20;64.90;;;;;;6206737;28;80396;-75
2023/10/22 00:57:24;;;;;;;11.38;7.10;;;24.20;65.00;;;;;;6209401;27;80281;-73
2023/10/22 01:00:25;;;;;;;10.30;6.68;;;24.20;65.00;;;;;;6211994;28;80957;-73
2023/10/22 01:03:25;;;;;;;10.77;6.53;;;24.20;64.90;;;;;;6211129;28;82786;-74
2023/10/22 01:06:26;;;;;;;13.85;7.13;;;24.20;64.90;;;;;;6206708;28;82591;-75
2023/10/22 01:09:27;;;;;;;13.38;6.38;;;24.20;64.80;;;;;;6228179;27;81902;-66
2023/10/22 01:12:27;;;;;;;9.40;5.57;;;24.20;65.10;;;;;;6224913;28;82297;-66
2023/10/22 01:15:28;;;;;;;11.85;6.18;;;24.20;65.00;;;;;;6230911;28;80951;-66
2023/10/22 01:18:28;;;;;;;13.13;7.03;;;24.10;65.20;;;;;;6249262;28;83251;-65
2023/10/22 01:21:29;;;;;;;9.02;5.75;;;24.10;65.20;;;;;;6228966;27;80408;-66
2023/10/22 01:24:32;;;;;;;10.77;6.40;;;24.10;65.20;;;;;;6227624;27;80673;-65
2023/10/22 01:27:33;;;;;;;9.98;5.82;;;24.10;65.40;;;;;;6239695;27;80238;-60
2023/10/22 01:30:33;;;;;;;9.18;5.80;;;24.10;65.30;;;;;;6228726;28;81676;-60
2023/10/22 01:33:34;;;;;;;11.63;6.85;;;24.10;65.30;;;;;;6226928;27;80205;-61
2023/10/22 01:36:34;;;;;;;11.00;6.25;;;24.10;65.30;;;;;;6226777;27;80823;-59
2023/10/22 01:39:35;;;;;;;11.60;6.28;;;24.10;65.20;;;;;;6223246;28;83410;-63
2023/10/22 01:42:35;;;;;;;7.72;5.10;;;24.10;65.30;;;;;;6203096;28;81456;-60
2023/10/22 01:45:36;;;;;;;10.23;6.30;;;24.10;65.30;;;;;;6203869;28;82098;-62
2023/10/22 01:48:38;;;;;;;7.93;5.55;;;24.10;65.50;;;;;;6212250;28;81109;-62
2023/10/22 01:51:38;;;;;;;8.73;5.45;;;24.10;65.50;;;;;;6220876;28;85824;-61
2023/10/22 01:54:40;;;;;;;9.00;4.88;;;24.10;65.40;;;;;;6221175;28;80297;-61
2023/10/22 01:57:41;;;;;;;8.70;5.95;;;24.10;65.50;;;;;;6203731;28;80412;-61
2023/10/22 02:00:42;;;;;;;9.02;5.28;;;24.10;65.30;;;;;;6201143;28;82937;-63
2023/10/22 02:03:45;;;;;;;9.85;5.70;;;24.10;65.40;;;;;;6208019;28;83031;-65
2023/10/22 02:06:45;;;;;;;8.85;5.35;;;24.10;65.30;;;;;;6204587;28;83663;-60
2023/10/22 02:09:46;;;;;;;9.73;5.10;;;24.10;65.50;;;;;;6203004;28;81539;-60
2023/10/22 02:12:48;;;;;;;10.40;6.13;;;24.10;65.50;;;;;;6201984;28;81914;-59
2023/10/22 02:15:49;;;;;;;9.02;5.72;;;24.10;65.50;;;;;;6214947;28;81978;-60
2023/10/22 02:18:49;;;;;;;9.82;5.10;;;24.00;65.40;;;;;;6200629;28;81791;-60
2023/10/22 02:21:50;;;;;;;10.05;5.50;;;24.10;65.60;;;;;;6204801;28;84239;-62
2023/10/22 02:24:50;;;;;;;7.30;4.35;;;24.10;65.60;;;;;;6202392;28;80608;-60
2023/10/22 02:27:51;;;;;;;9.40;5.60;;;24.10;65.40;;;;;;6202044;28;82136;-61
2023/10/22 02:30:52;;;;;;;9.32;5.53;;;24.00;65.50;;;;;;6211186;28;81136;-61
2023/10/22 02:33:52;;;;;;;10.02;5.32;;;24.10;65.60;;;;;;6202693;28;80796;-61
2023/10/22 02:36:53;;;;;;;10.18;4.80;;;24.10;65.50;;;;;;6211468;27;81782;-61
2023/10/22 02:39:53;;;;;;;8.45;4.78;;;24.10;65.50;;;;;;6226276;27;80229;-59
2023/10/22 02:42:54;;;;;;;7.63;4.78;;;24.10;65.50;;;;;;6215480;28;82061;-60
2023/10/22 02:45:54;;;;;;;7.72;4.55;;;24.10;65.50;;;;;;6219285;28;80407;-61
2023/10/22 02:48:55;;;;;;;8.35;5.20;;;24.10;65.50;;;;;;6231465;27;80931;-61
2023/10/22 02:51:55;;;;;;;9.00;4.55;;;24.10;65.50;;;;;;6225049;27;82183;-61
2023/10/22 02:54:56;;;;;;;7.57;4.57;;;24.10;65.50;;;;;;6225633;27;80422;-61
2023/10/22 02:57:56;;;;;;;7.25;4.82;;;24.10;65.40;;;;;;6224078;27;81407;-62
2023/10/22 03:00:57;;;;;;;7.75;4.60;;;24.10;65.40;;;;;;6224543;27;81453;-72
2023/10/22 03:03:57;;;;;;;7.85;4.70;;;24.10;65.30;;;;;;6224845;28;83765;-71
2023/10/22 03:06:58;;;;;;;7.97;4.35;;;24.10;65.40;;;;;;6225830;27;80659;-74
2023/10/22 03:09:58;;;;;;;7.05;4.40;;;24.10;65.40;;;;;;6227394;28;83075;-73
2023/10/22 03:12:59;;;;;;;7.85;4.45;;;24.10;65.50;;;;;;6249981;27;80504;-72
2023/10/22 03:16:00;;;;;;;7.93;4.43;;;24.00;65.40;;;;;;6226828;27;80363;-72
2023/10/22 03:19:01;;;;;;;6.68;4.30;;;24.10;65.40;;;;;;6224594;27;80451;-73
2023/10/22 03:22:04;;;;;;;7.03;4.10;;;24.10;65.50;;;;;;6225161;28;86495;-71
2023/10/22 03:25:07;;;;;;;6.53;4.15;;;24.00;65.50;;;;;;6235596;28;82622;-67
2023/10/22 03:28:08;;;;;;;5.63;3.72;;;24.10;65.70;;;;;;6207585;28;83677;-64
2023/10/22 03:31:08;;;;;;;6.45;3.72;;;24.10;65.50;;;;;;6207574;28;82068;-66
2023/10/22 03:34:09;;;;;;;10.23;4.60;;;24.10;65.50;;;;;;6212019;28;84021;-68
2023/10/22 03:37:10;;;;;;;6.47;3.78;;;24.10;65.40;;;;;;6215215;28;81479;-67
2023/10/22 03:40:10;;;;;;;12.18;3.95;;;24.10;65.50;;;;;;6215046;28;80884;-65
2023/10/22 03:43:11;;;;;;;7.68;3.92;;;24.10;65.40;;;;;;6199001;28;82134;-68
2023/10/22 03:46:11;;;;;;;9.27;4.05;;;24.20;65.40;;;;;;6212410;28;82307;-67
2023/10/22 03:49:12;;;;;;;6.40;3.55;;;24.20;65.40;;;;;;6209048;27;80604;-67
2023/10/22 03:52:12;;;;;;;5.53;3.58;;;24.10;65.30;;;;;;6201562;28;80507;-67
2023/10/22 03:55:13;;;;;;;7.70;3.60;;;24.10;65.60;;;;;;6202086;28;80617;-61
2023/10/22 03:58:13;;;;;;;7.68;3.92;;;24.10;65.40;;;;;;6212872;28;81242;-62
2023/10/22 04:01:14;;;;;;;6.28;4.00;;;24.00;65.50;;;;;;6200818;28;80328;-63
2023/10/22 04:04:14;;;;;;;9.70;3.50;;;24.10;65.50;;;;;;6203128;28;80702;-62
2023/10/22 04:07:15;;;;;;;6.53;4.15;;;24.00;65.60;;;;;;6200080;28;80409;-62
2023/10/22 04:10:16;;;;;;;7.35;3.95;;;24.00;65.60;;;;;;6201613;28;80845;-62
2023/10/22 04:13:16;;;;;;;6.13;3.72;;;24.00;65.50;;;;;;6200398;28;80264;-61
2023/10/22 04:16:17;;;;;;;5.35;3.42;;;24.00;65.70;;;;;;6197562;28;88456;-60
2023/10/22 04:19:17;;;;;;;6.25;3.50;;;24.00;65.60;;;;;;6218444;28;80435;-61
2023/10/22 04:22:18;;;;;;;5.05;3.40;;;24.00;65.60;;;;;;6221638;27;82831;-60
2023/10/22 04:25:18;;;;;;;7.70;3.15;;;24.00;65.60;;;;;;6220598;27;82110;-60
2023/10/22 04:28:19;;;;;;;4.32;2.90;;;24.00;65.60;;;;;;6225276;27;80944;-60
2023/10/22 04:31:19;;;;;;;5.70;3.42;;;24.00;65.70;;;;;;6232378;28;80360;-60
2023/10/22 04:34:20;;;;;;;7.72;3.72;;;24.00;65.70;;;;;;6219682;28;80419;-59
2023/10/22 04:37:23;;;;;;;6.88;3.60;;;24.00;65.60;;;;;;6221910;28;80988;-59
2023/10/22 04:40:26;;;;;;;5.55;2.95;;;24.00;65.60;;;;;;6235170;27;83510;-61
2023/10/22 04:43:30;;;;;;;5.50;3.25;;;24.00;65.60;;;;;;6211823;28;80322;-60
2023/10/22 04:46:30;;;;;;;6.38;3.10;;;24.00;65.50;;;;;;6223556;27;81518;-59
2023/10/22 04:49:31;;;;;;;5.38;3.55;;;24.10;65.70;;;;;;6228540;27;80467;-66
2023/10/22 04:52:33;;;;;;;5.25;3.28;;;24.10;65.50;;;;;;6207432;28;80679;-67
2023/10/22 04:55:34;;;;;;;5.03;2.85;;;24.10;65.50;;;;;;6209109;28;81988;-67
2023/10/22 04:58:35;;;;;;;7.40;3.30;;;24.10;65.60;;;;;;6202722;28;80612;-62
2023/10/22 05:01:35;;;;;;;4.75;3.03;;;24.10;65.60;;;;;;6217898;28;82343;-63
2023/10/22 05:04:36;;;;;;;3.67;2.58;;;24.10;65.50;;;;;;6203292;28;80412;-63
2023/10/22 05:07:37;;;;;;;5.10;2.95;;;24.10;65.50;;;;;;6226953;28;82332;-66
2023/10/22 05:10:38;;;;;;;4.85;2.78;;;24.10;65.60;;;;;;6236865;27;80867;-64
2023/10/22 05:13:38;;;;;;;7.55;3.05;;;24.10;65.50;;;;;;6246749;27;81369;-64
2023/10/22 05:16:39;;;;;;;5.07;3.35;;;24.10;65.70;;;;;;6228690;28;82221;-66
2023/10/22 05:19:39;;;;;;;6.22;3.35;;;24.10;65.60;;;;;;6240317;27;81848;-66
2023/10/22 05:22:40;;;;;;;4.65;3.10;;;24.10;65.60;;;;;;6227498;27;81805;-63
2023/10/22 05:25:40;;;;;;;6.20;2.70;;;24.10;65.60;;;;;;6227605;27;80776;-71
2023/10/22 05:28:41;;;;;;;3.63;2.47;;;24.10;65.70;;;;;;6246319;27;82484;-77
2023/10/22 05:31:42;;;;;;;3.45;2.20;;;24.10;65.70;;;;;;6229569;28;80917;-68
2023/10/22 05:34:43;;;;;;;4.88;2.75;;;24.10;65.90;;;;;;6245925;27;80647;-70
2023/10/22 05:37:43;;;;;;;3.80;2.45;;;24.10;65.70;;;;;;6236765;27;80098;-70
2023/10/22 05:40:44;;;;;;;5.50;3.10;;;24.00;65.80;;;;;;6225864;28;80545;-68
2023/10/22 05:43:44;;;;;;;4.32;2.53;;;24.10;66.20;;;;;;6222430;27;80424;-68
2023/10/22 05:46:45;;;;;;;4.13;2.60;;;24.10;65.80;;;;;;6226078;27;80754;-62
2023/10/22 05:49:46;;;;;;;4.78;2.38;;;24.10;65.50;;;;;;6224486;28;80632;-62
2023/10/22 05:52:50;;;;;;;3.65;2.70;;;24.10;65.50;;;;;;6223860;28;81708;-63
2023/10/22 05:55:50;;;;;;;4.00;2.60;;;24.20;65.50;;;;;;6225372;28;80789;-62
2023/10/22 05:58:51;;;;;;;4.53;2.50;;;24.20;65.60;;;;;;6225477;28;81909;-64
2023/10/22 06:01:51;;;;;;;3.28;2.13;;;24.10;66.10;;;;;;6226635;27;83585;-61
2023/10/22 06:04:52;;;;;;;8.52;2.83;;;24.10;66.00;;;;;;6227297;28;82642;-61
2023/10/22 06:07:53;;;;;;;6.38;2.50;;;24.10;65.90;;;;;;6233239;27;82293;-62
2023/10/22 06:10:53;;;;;;;6.05;2.60;;;24.10;65.80;;;;;;6221058;27;80951;-60
2023/10/22 06:13:54;;;;;;;8.50;3.00;;;24.10;66.20;;;;;;6223620;28;80438;-62
2023/10/22 06:16:54;;;;;;;4.20;2.33;;;24.10;66.50;;;;;;6236600;27;80812;-61
2023/10/22 06:19:55;;;;;;;4.35;2.80;;;24.20;66.60;;;;;;6228767;28;82712;-63
2023/10/22 06:22:56;;;;;;;4.90;2.28;;;24.20;66.80;;;;;;6228042;27;80730;-65
2023/10/22 06:25:56;;;;;;;6.28;2.45;;;24.20;66.80;;;;;;6223205;28;83564;-68
2023/10/22 06:28:57;;;;;;;3.97;2.15;;;24.30;67.20;;;;;;6202713;27;80823;-68
2023/10/22 06:31:57;;;;;;;4.95;2.25;;;24.30;67.20;;;;;;6225716;28;83009;-66
2023/10/22 06:34:58;;;;;;;4.07;2.17;;;24.30;67.50;;;;;;6211552;28;80946;-63
2023/10/22 06:37:58;;;;;;;6.20;3.50;;;24.30;67.20;;;;;;6220527;28;80510;-64
2023/10/22 06:40:59;;;;;;;5.35;2.63;;;24.30;67.40;;;;;;6220679;28;83552;-66
2023/10/22 06:43:59;;;;;;;7.32;3.17;;;24.30;67.40;;;;;;6220783;28;83070;-68
2023/10/22 06:47:00;;;;;;;5.47;3.30;;;24.30;67.80;;;;;;6213931;27;80302;-64
2023/10/22 06:50:00;;;;;;;9.60;4.00;;;24.40;68.10;;;;;;6228427;27;80602;-68
2023/10/22 06:53:01;;;;;;;10.95;4.20;;;24.40;68.40;;;;;;6221357;28;83240;-72
2023/10/22 06:56:01;;;;;;;9.15;3.60;;;24.40;68.80;;;;;;6223502;28;81651;-68
2023/10/22 06:59:03;;;;;;;10.02;4.47;;;24.40;69.00;;;;;;6223259;28;82094;-65
2023/10/22 07:02:03;;;;;;;7.20;3.83;;;24.40;69.60;;;;;;6222126;28;80510;-66
2023/10/22 07:05:07;;;;;;;8.55;4.22;;;24.40;68.80;;;;;;6211920;28;81191;-66
2023/10/22 07:08:07;;;;;;;6.95;4.10;;;24.40;68.80;;;;;;6226334;27;80753;-69
2023/10/22 07:11:08;;;;;;;8.30;3.88;;;24.40;68.50;;;;;;6217414;27;81585;-70
2023/10/22 07:14:08;;;;;;;13.60;5.18;;;24.40;68.80;;;;;;6218518;28;80118;-70
2023/10/22 07:17:09;;;;;;;11.45;4.20;;;24.40;68.90;;;;;;6214529;27;80755;-67
2023/10/22 07:20:12;;;;;;;8.27;3.70;;;24.40;69.10;;;;;;6211116;28;82913;-66
2023/10/22 07:23:13;;;;;;;8.40;3.67;;;24.40;68.90;;;;;;6219084;28;82274;-65
2023/10/22 07:26:13;;;;;;;8.38;3.08;;;24.40;68.80;;;;;;6189545;28;82987;-66
2023/10/22 07:29:14;;;;;;;11.05;3.72;;;24.50;68.60;;;;;;6212516;28;80320;-61
2023/10/22 07:32:14;;;;;;;6.15;2.95;;;24.40;67.90;;;;;;6193763;27;80802;-65
2023/10/22 07:35:16;;;;;;;7.32;2.78;;;24.40;67.90;;;;;;6198046;28;80697;-63
2023/10/22 07:38:17;;;;;;;7.57;2.63;;;24.40;67.90;;;;;;6210253;28;81740;-66
2023/10/22 07:41:19;;;;;;;5.03;2.47;;;24.40;67.50;;;;;;6207534;27;82733;-65
2023/10/22 07:44:20;;;;;;;3.33;2.40;;;24.40;68.00;;;;;;6198338;28;82473;-65
2023/10/22 07:47:20;;;;;;;4.07;2.47;;;24.30;67.80;;;;;;6205571;28;81163;-65
2023/10/22 07:50:21;;;;;;;12.60;2.90;;;24.40;67.60;;;;;;6202441;27;82298;-66
2023/10/22 07:53:21;;;;;;;10.68;2.38;;;24.40;67.90;;;;;;6194623;28;80910;-58
2023/10/22 07:56:22;;;;;;;15.18;3.03;;;24.40;67.70;;;;;;6204443;27;86731;-61
2023/10/22 07:59:22;;;;;;;6.85;2.53;;;24.40;67.70;;;;;;6218758;27;82872;-59
2023/10/22 08:02:23;;;;;;;8.07;2.15;;;24.40;67.80;;;;;;6209683;27;80992;-59
2023/10/22 08:05:23;;;;;;;7.35;2.15;;;24.40;67.40;;;;;;6206221;28;82327;-60
2023/10/22 08:08:24;;;;;;;8.90;2.70;;;24.40;67.30;;;;;;6212467;27;80815;-61
2023/10/22 08:11:25;;;;;;;6.35;2.58;;;24.50;67.10;;;;;;6202352;27;80295;-60
2023/10/22 08:14:25;;;;;;;8.00;2.13;;;24.50;67.10;;;;;;6204392;28;82252;-61
2023/10/22 08:17:26;;;;;;;5.82;1.83;;;24.50;67.00;;;;;;6211583;27;81376;-60
2023/10/22 08:20:27;;;;;;;4.22;1.75;;;24.50;67.30;;;;;;6217738;27;80453;-60
2023/10/22 08:23:27;;;;;;;4.88;1.73;;;24.50;67.30;;;;;;6211630;28;80576;-60
2023/10/22 08:26:28;;;;;;;3.78;1.60;;;24.60;67.20;;;;;;6209580;28;81806;-61
2023/10/22 08:29:28;;;;;;;2.88;1.77;;;24.60;67.30;;;;;;6213544;27;80623;-59
2023/10/22 08:32:29;;;;;;;7.75;2.17;;;24.60;67.40;;;;;;6224065;27;81307;-60
2023/10/22 08:35:29;;;;;;;4.05;1.63;;;24.60;67.20;;;;;;6222011;28;83371;-60
2023/10/22 08:38:30;;;;;;;5.57;1.95;;;24.60;67.40;;;;;;6183293;28;81577;-59
2023/10/22 08:41:31;;;;;;;5.10;1.83;;;24.60;67.40;;;;;;6222374;28;82134;-61
2023/10/22 08:44:31;;;;;;;3.30;1.73;;;24.60;67.40;;;;;;6205536;27;86146;-60
2023/10/22 08:47:32;;;;;;;7.07;1.73;;;24.60;67.20;;;;;;6216695;28;80422;-60
2023/10/22 08:50:32;;;;;;;6.05;1.77;;;24.60;67.10;;;;;;6222334;28;83399;-59
2023/10/22 08:53:33;;;;;;;2.60;1.70;;;24.60;67.10;;;;;;6219300;28;83746;-60
2023/10/22 08:56:34;;;;;;;2.40;1.75;;;24.60;67.40;;;;;;6221329;28;81324;-60
2023/10/22 08:59:36;;;;;;;2.53;1.70;;;24.70;67.70;;;;;;6215097;28;80739;-61
2023/10/22 09:02:36;;;;;;;2.67;1.40;;;24.70;67.80;;;;;;6217389;28;83208;-60
2023/10/22 09:05:37;;;;;;;2.78;1.65;;;24.70;67.60;;;;;;6212606;28;81781;-61
2023/10/22 09:08:37;;;;;;;3.53;1.80;;;24.70;67.90;;;;;;6224019;27;80492;-60
2023/10/22 09:11:38;;;;;;;6.35;1.70;;;24.70;67.60;;;;;;6190093;27;82354;-60
2023/10/22 09:14:38;;;;;;;2.03;1.50;;;24.70;67.90;;;;;;6219117;28;80296;-60
2023/10/22 09:17:39;;;;;;;5.90;1.90;;;24.70;67.60;;;;;;6209094;28;80455;-59
2023/10/22 09:20:40;;;;;;;4.03;1.52;;;24.70;67.10;;;;;;6212681;28;81730;-59
2023/10/22 09:23:40;;;;;;;7.15;1.98;;;24.60;67.40;;;;;;6210157;28;83487;-58
2023/10/22 09:26:41;;;;;;;6.82;1.67;;;24.60;67.50;;;;;;6204361;28;80443;-61
2023/10/22 09:29:42;;;;;;;14.63;2.35;;;24.60;67.90;;;;;;6207174;28;80539;-62
2023/10/22 09:32:42;;;;;;;7.93;2.22;;;24.60;67.90;;;;;;6214570;28;80954;-60
2023/10/22 09:35:43;;;;;;;6.55;2.13;;;24.50;67.70;;;;;;6219352;28;83732;-61
2023/10/22 09:38:44;;;;;;;8.20;1.98;;;24.50;67.70;;;;;;6227488;28;81796;-63
2023/10/22 09:41:44;;;;;;;5.20;1.52;;;24.50;67.90;;;;;;6219119;28;80713;-60
2023/10/22 09:44:45;;;;;;;2.67;1.63;;;24.40;67.70;;;;;;6216368;28;81023;-61
2023/10/22 09:47:45;;;;;;;5.65;1.80;;;24.40;68.00;;;;;;6221795;28;80175;-59
2023/10/22 09:50:46;;;;;;;4.63;2.20;;;24.40;67.50;;;;;;6215173;28;80666;-60
2023/10/22 09:53:47;;;;;;;2.78;1.70;;;24.40;67.80;;;;;;6215788;28;81753;-59
2023/10/22 09:56:47;;;;;;;10.25;1.83;;;24.40;68.00;;;;;;6215892;28;80696;-61
2023/10/22 09:59:48;;;;;;;4.43;1.85;;;24.30;67.70;;;;;;6218933;28;80683;-61
2023/10/22 10:02:49;;;;;;;3.60;1.77;;;24.30;67.80;;;;;;6218442;27;80858;-62
2023/10/22 10:05:51;;;;;;;6.05;2.45;;;24.30;67.80;;;;;;6226927;28;81127;-61
2023/10/22 10:08:51;;;;;;;2.95;1.83;;;24.30;68.00;;;;;;6215780;28;81082;-60
2023/10/22 10:11:52;;;;;;;6.65;2.28;;;24.30;67.80;;;;;;6222641;27;81106;-62
2023/10/22 10:14:52;;;;;;;9.85;2.20;;;24.30;67.90;;;;;;6221317;28;80903;-60
2023/10/22 10:17:53;;;;;;;4.30;2.22;;;24.20;67.70;;;;;;6226798;28;80136;-60
2023/10/22 10:20:54;;;;;;;3.38;1.92;;;24.20;67.70;;;;;;6222555;28;81834;-59
2023/10/22 10:23:54;;;;;;;4.03;1.90;;;24.20;67.60;;;;;;6199396;28;80447;-59
2023/10/22 10:26:57;;;;;;;3.00;1.90;;;24.10;67.80;;;;;;6217464;28;82757;-60
2023/10/22 10:29:58;;;;;;;5.72;2.00;;;24.10;68.80;;;;;;6201419;27;84151;-59
2023/10/22 10:32:59;;;;;;;5.85;2.30;;;24.20;68.50;;;;;;6219688;27;81177;-60
2023/10/22 10:35:59;;;;;;;5.35;2.28;;;24.20;67.90;;;;;;6220424;28;80528;-60
2023/10/22 10:39:00;;;;;;;5.68;2.40;;;24.20;68.40;;;;;;6200180;28;83075;-64
2023/10/22 10:42:00;;;;;;;6.40;2.25;;;24.20;68.30;;;;;;6206583;28;82751;-61
2023/10/22 10:45:01;;;;;;;4.50;2.40;;;24.20;68.30;;;;;;6218139;27;80577;-61
2023/10/22 10:48:01;;;;;;;6.68;2.30;;;24.20;68.60;;;;;;6205823;28;80472;-61
2023/10/22 10:51:02;;;;;;;5.60;2.78;;;24.20;68.80;;;;;;6201881;28;81828;-61
2023/10/22 10:54:03;;;;;;;11.40;2.60;;;24.20;68.60;;;;;;6208226;27;81256;-62
2023/10/22 10:57:03;;;;;;;6.97;2.58;;;24.20;68.20;;;;;;6202317;28;81585;-67
2023/10/22 11:00:04;;;;;;;4.60;2.10;;;24.20;68.20;;;;;;6202132;28;80800;-67
2023/10/22 11:03:06;;;;;;;5.15;2.55;;;24.20;68.30;;;;;;6198079;27;80742;-67
2023/10/22 11:06:06;;;;;;;4.78;2.70;;;24.20;68.20;;;;;;6203896;28;80870;-65
2023/10/22 11:09:07;;;;;;;4.35;2.40;;;24.10;68.30;;;;;;6198950;28;81065;-65
2023/10/22 11:12:08;;;;;;;4.75;1.90;;;24.10;68.40;;;;;;6200612;28;80543;-64
2023/10/22 11:15:12;;;;;;;5.97;3.22;;;24.10;68.40;;;;;;6198903;28;81401;-64
2023/10/22 11:18:12;;;;;;;4.75;2.83;;;24.10;68.30;;;;;;6207701;27;80332;-63
2023/10/22 11:21:13;;;;;;;7.50;2.33;;;24.10;68.30;;;;;;6204412;28;82120;-66
2023/10/22 11:24:13;;;;;;;8.02;2.70;;;24.10;68.70;;;;;;6197535;28;81151;-65
2023/10/22 11:27:14;;;;;;;3.25;2.15;;;24.10;68.70;;;;;;6205101;28;81903;-67
2023/10/22 11:30:14;;;;;;;4.03;2.45;;;24.10;68.80;;;;;;6207494;28;81686;-66
2023/10/22 11:33:15;;;;;;;6.18;2.90;;;24.10;68.90;;;;;;6203150;27;80863;-66
2023/10/22 11:36:15;;;;;;;5.47;3.05;;;24.10;68.90;;;;;;6199475;28;82213;-64
2023/10/22 11:39:16;;;;;;;6.93;3.17;;;24.00;69.10;;;;;;6220433;27;81244;-68
2023/10/22 11:42:17;;;;;;;5.40;3.45;;;24.00;69.40;;;;;;6216985;27;83179;-58
2023/10/22 11:45:19;;;;;;;6.30;3.67;;;24.00;69.80;;;;;;6198915;28;82730;-65
2023/10/22 11:48:20;;;;;;;7.68;3.30;;;24.00;69.80;;;;;;6221120;27;80451;-62
2023/10/22 11:51:20;;;;;;;6.20;3.63;;;24.00;70.30;;;;;;6213730;28;81613;-71
2023/10/22 11:54:21;;;;;;;6.13;4.03;;;24.00;71.10;;;;;;6224345;28;80911;-67
2023/10/22 11:57:22;;;;;;;7.30;4.32;;;24.00;71.10;;;;;;6221734;28;80222;-67
2023/10/22 12:00:22;;;;;;;6.13;4.13;;;24.00;71.40;;;;;;6218751;28;80992;-71
2023/10/22 12:03:23;;;;;;;6.75;3.75;;;24.10;71.90;;;;;;6226653;27;80301;-70
2023/10/22 12:06:23;;;;;;;5.20;3.67;;;24.10;71.90;;;;;;6217902;27;80520;-69
2023/10/22 12:09:24;;;;;;;9.00;4.47;;;24.10;71.50;;;;;;6206805;28;81224;-69
2023/10/22 12:12:24;;;;;;;8.85;4.97;;;24.10;71.80;;;;;;6202991;28;80139;-72
2023/10/22 12:15:25;;;;;;;9.23;5.55;;;24.10;71.30;;;;;;6215285;28;80746;-69
2023/10/22 12:18:26;;;;;;;8.05;4.95;;;24.10;71.20;;;;;;6216573;28;80444;-71
2023/10/22 12:21:27;;;;;;;7.97;5.22;;;24.00;72.00;;;;;;6208272;28;80505;-72
2023/10/22 12:24:27;;;;;;;7.93;4.20;;;23.90;70.90;;;;;;6214491;28;80303;-71
2023/10/22 12:27:28;;;;;;;10.13;3.92;;;23.80;71.20;;;;;;6206472;28;82445;-71
2023/10/22 12:30:28;;;;;;;7.78;3.65;;;23.80;70.70;;;;;;6223566;27;81075;-63
2023/10/22 12:33:29;;;;;;;9.27;3.20;;;23.70;70.40;;;;;;6240791;27;81925;-71
2023/10/22 12:36:30;;;;;;;4.63;3.05;;;23.60;69.60;;;;;;6228508;28;80332;-67
2023/10/22 12:39:31;;;;;;;11.25;3.10;;;23.60;69.80;;;;;;6250325;27;80603;-63
2023/10/22 12:42:31;;;;;;;5.40;2.60;;;23.70;69.10;;;;;;6232558;28;81750;-67
2023/10/22 12:45:32;;;;;;;5.88;2.67;;;23.60;69.00;;;;;;6214929;28;80341;-72
2023/10/22 12:48:32;;;;;;;8.80;2.35;;;23.60;69.60;;;;;;6227683;27;80754;-71
2023/10/22 12:51:33;;;;;;;5.75;2.65;;;23.60;69.10;;;;;;6225559;28;80534;-68
2023/10/22 12:54:35;;;;;;;3.63;2.80;;;23.70;68.60;;;;;;6225559;28;80246;-62
2023/10/22 12:57:35;;;;;;;4.07;2.58;;;23.60;68.90;;;;;;6221351;27;82316;-64
2023/10/22 13:00:36;;;;;;;6.05;3.05;;;23.70;68.70;;;;;;6205022;28;81355;-65
2023/10/22 13:03:37;;;;;;;4.28;2.53;;;23.50;68.70;;;;;;6206804;27;86103;-65
2023/10/22 13:06:37;;;;;;;2.60;2.03;;;23.60;68.60;;;;;;6205637;28;80834;-63
2023/10/22 13:09:38;;;;;;;8.38;3.03;;;23.70;68.20;;;;;;6208057;27;82182;-64
2023/10/22 13:12:39;;;;;;;4.35;2.20;;;23.70;68.00;;;;;;6200374;28;81877;-62
2023/10/22 13:15:39;;;;;;;2.70;1.95;;;23.80;67.70;;;;;;6201762;28;82108;-62
2023/10/22 13:18:42;;;;;;;2.97;2.03;;;23.80;67.70;;;;;;6205513;28;81169;-63
2023/10/22 13:21:43;;;;;;;2.67;1.90;;;23.80;67.30;;;;;;6205957;28;81189;-62
2023/10/22 13:24:43;;;;;;;2.42;1.65;;;23.80;67.40;;;;;;6199513;28;80632;-64
2023/10/22 13:27:43;;;;;;;2.70;2.05;;;23.80;67.40;;;;;;6209961;27;81028;-63
2023/10/22 13:30:44;;;;;;;3.78;2.08;;;23.80;66.60;;;;;;6214033;28;81466;-65
2023/10/22 13:33:44;;;;;;;2.30;1.67;;;23.80;66.70;;;;;;6204154;28;81518;-67
2023/10/22 13:36:45;;;;;;;2.40;1.50;;;23.90;66.50;;;;;;6208994;27;81378;-67
2023/10/22 13:39:46;;;;;;;3.35;1.92;;;23.90;66.50;;;;;;6215437;28;80423;-65
2023/10/22 13:42:46;;;;;;;4.00;1.70;;;23.90;66.20;;;;;;6201064;27;84392;-68
2023/10/22 13:45:47;;;;;;;2.00;1.52;;;23.90;66.30;;;;;;6213045;28;87460;-63
2023/10/22 13:48:47;;;;;;;2.35;1.40;;;23.90;66.20;;;;;;6221234;27;81035;-67
2023/10/22 13:51:48;;;;;;;2.15;1.60;;;23.90;66.00;;;;;;6216341;28;82094;-65
2023/10/22 13:54:48;;;;;;;1.70;1.60;;;23.90;66.20;;;;;;6213022;27;80650;-65
2023/10/22 13:57:49;;;;;;;2.70;1.50;;;23.90;66.10;;;;;;6213770;28;81515;-66
2023/10/22 14:00:49;;;;;;;13.05;2.05;;;23.90;65.90;;;;;;6212914;27;81839;-65
2023/10/22 14:03:50;;;;;;;2.05;1.58;;;23.90;65.80;;;;;;6204045;27;80919;-66
2023/10/22 14:06:50;;;;;;;5.90;1.55;;;23.90;66.00;;;;;;6206460;28;81977;-63
2023/10/22 14:09:51;;;;;;;1.42;1.20;;;23.90;65.60;;;;;;6195001;28;81194;-65
2023/10/22 14:12:54;;;;;;;2.00;1.60;;;23.90;65.90;;;;;;6199691;28;80808;-66
2023/10/22 14:15:54;;;;;;;3.38;1.40;;;23.90;65.50;;;;;;6207448;27;80969;-63
2023/10/22 14:18:55;;;;;;;5.00;1.60;;;23.90;65.80;;;;;;6222316;27;81891;-68
2023/10/22 14:21:55;;;;;;;2.10;1.50;;;23.90;65.20;;;;;;6205120;28;80367;-63
2023/10/22 14:24:56;;;;;;;3.15;1.88;;;23.90;65.50;;;;;;6201019;28;80987;-69
2023/10/22 14:27:57;;;;;;;2.70;1.67;;;23.90;65.10;;;;;;6207368;28;82253;-70
2023/10/22 14:30:58;;;;;;;5.40;1.58;;;24.00;65.30;;;;;;6203920;27;81323;-63
2023/10/22 14:33:58;;;;;;;1.80;1.40;;;24.00;65.00;;;;;;6188361;28;81830;-70
2023/10/22 14:36:59;;;;;;;2.03;1.50;;;23.90;64.10;;;;;;6195065;27;81308;-63
2023/10/22 14:39:59;;;;;;;3.97;1.80;;;23.90;64.30;;;;;;6191236;28;81057;-63
2023/10/22 14:43:00;;;;;;;2.88;1.95;;;24.30;64.40;;;;;;6201460;27;82882;-63
2023/10/22 14:46:00;;;;;;;2.70;1.40;;;24.70;63.20;;;;;;6202892;27;81794;-66
2023/10/22 14:49:01;;;;;;;2.35;1.58;;;24.60;62.20;;;;;;6193967;27;83320;-66
2023/10/22 14:52:02;;;;;;;2.00;1.60;;;24.40;62.30;;;;;;6186945;27;81867;-67
2023/10/22 14:55:03;;;;;;;1.92;1.10;;;24.30;62.20;;;;;;6189784;28;81644;-65
2023/10/22 14:58:03;;;;;;;2.78;1.70;;;24.30;62.60;;;;;;6198370;28;81238;-64
2023/10/22 15:01:04;;;;;;;2.10;1.52;;;24.20;62.30;;;;;;6186248;28;86750;-64
2023/10/22 15:04:04;;;;;;;2.83;1.52;;;24.10;62.40;;;;;;6193893;28;81750;-65
2023/10/22 15:07:05;;;;;;;1.90;1.45;;;24.10;62.40;;;;;;6195507;27;81483;-64
2023/10/22 15:10:07;;;;;;;1.70;1.38;;;24.10;62.90;;;;;;6187934;27;81770;-64
2023/10/22 15:13:08;;;;;;;1.77;1.17;;;24.00;62.80;;;;;;6194606;27;82107;-63
2023/10/22 15:16:09;;;;;;;6.63;1.80;;;24.00;62.30;;;;;;6196690;28;81426;-64
2023/10/22 15:19:10;;;;;;;5.05;1.55;;;24.00;62.70;;;;;;6195649;28;83199;-65
2023/10/22 15:22:11;;;;;;;3.15;1.63;;;24.00;62.40;;;;;;6182762;28;81412;-66
2023/10/22 15:25:11;;;;;;;3.22;1.60;;;24.00;62.60;;;;;;6193904;28;83666;-65
2023/10/22 15:28:12;;;;;;;2.80;1.55;;;24.00;62.60;;;;;;6184993;28;82480;-66
2023/10/22 15:31:13;;;;;;;2.47;1.80;;;24.00;62.60;;;;;;6181650;27;81814;-70
2023/10/22 15:34:13;;;;;;;2.20;1.52;;;23.90;62.50;;;;;;6187871;28;81559;-65
2023/10/22 15:37:14;;;;;;;2.15;1.88;;;23.90;62.20;;;;;;6185850;28;81428;-66